sensor_id;sensor_type;location;lat;lon;timestamp;temperature;humidity
20459;DHT22;10388;52.314;7.938;2023-11-19T00:01:13;8.60;99.90
20459;DHT22;10388;52.314;7.938;2023-11-19T00:03:44;8.60;99.90
20459;DHT22;10388;52.314;7.938;2023-11-19T00:06:14;8.60;99.90
20459;DHT22;10388;52.314;7.938;2023-11-19T00:08:47;8.70;99.90
20459;DHT22;10388;52.314;7.938;2023-11-19T00:11:18;8.70;99.90
20459;DHT22;10388;52.314;7.938;2023-11-19T00:13:48;8.70;99.90
20459;DHT22;10388;52.314;7.938;2023-11-19T00:16:19;8.80;99.90
20459;DHT22;10388;52.314;7.938;2023-11-19T00:18:49;8.80;99.90
20459;DHT22;10388;52.314;7.938;2023-11-19T00:21:20;8.80;99.90
20459;DHT22;10388;52.314;7.938;2023-11-19T00:23:50;8.90;99.90
20459;DHT22;10388;52.314;7.938;2023-11-19T00:26:22;8.90;99.90
20459;DHT22;10388;52.314;7.938;2023-11-19T00:28:52;9.00;99.90
20459;DHT22;10388;52.314;7.938;2023-11-19T00:31:23;9.00;99.90
20459;DHT22;10388;52.314;7.938;2023-11-19T00:33:54;9.00;99.90
20459;DHT22;10388;52.314;7.938;2023-11-19T00:36:24;9.00;99.90
20459;DHT22;10388;52.314;7.938;2023-11-19T00:38:55;9.00;99.90
20459;DHT22;10388;52.314;7.938;2023-11-19T00:41:27;9.00;99.90
20459;DHT22;10388;52.314;7.938;2023-11-19T00:43:57;9.10;99.90
20459;DHT22;10388;52.314;7.938;2023-11-19T00:46:28;9.10;99.90
20459;DHT22;10388;52.314;7.938;2023-11-19T00:48:58;9.20;99.90
20459;DHT22;10388;52.314;7.938;2023-11-19T00:51:31;9.20;99.90
20459;DHT22;10388;52.314;7.938;2023-11-19T00:54:04;9.20;99.90
20459;DHT22;10388;52.314;7.938;2023-11-19T00:56:35;9.20;99.90
20459;DHT22;10388;52.314;7.938;2023-11-19T00:59:06;9.30;99.90
20459;DHT22;10388;52.314;7.938;2023-11-19T04:32:54;10.60;99.90
20459;DHT22;10388;52.314;7.938;2023-11-19T04:35:26;10.70;99.90
20459;DHT22;10388;52.314;7.938;2023-11-19T04:37:56;10.70;99.90
20459;DHT22;10388;52.314;7.938;2023-11-19T04:40:27;10.70;99.90
20459;DHT22;10388;52.314;7.938;2023-11-19T04:42:58;10.70;99.90
20459;DHT22;10388;52.314;7.938;2023-11-19T04:45:28;10.80;99.90
20459;DHT22;10388;52.314;7.938;2023-11-19T04:47:59;10.80;99.90
20459;DHT22;10388;52.314;7.938;2023-11-19T04:50:29;10.80;99.90
20459;DHT22;10388;52.314;7.938;2023-11-19T04:53:00;10.80;99.90
20459;DHT22;10388;52.314;7.938;2023-11-19T04:55:31;10.80;99.90
20459;DHT22;10388;52.314;7.938;2023-11-19T04:58:01;10.80;99.90
20459;DHT22;10388;52.314;7.938;2023-11-19T05:00:32;10.80;99.90
20459;DHT22;10388;52.314;7.938;2023-11-19T05:03:03;10.90;99.90
20459;DHT22;10388;52.314;7.938;2023-11-19T05:05:33;10.80;99.90
20459;DHT22;10388;52.314;7.938;2023-11-19T05:08:04;10.80;99.90
20459;DHT22;10388;52.314;7.938;2023-11-19T05:10:35;10.80;99.90
20459;DHT22;10388;52.314;7.938;2023-11-19T05:13:07;10.80;99.90
20459;DHT22;10388;52.314;7.938;2023-11-19T05:15:37;10.80;99.90
20459;DHT22;10388;52.314;7.938;2023-11-19T05:18:08;10.80;99.90
20459;DHT22;10388;52.314;7.938;2023-11-19T05:20:39;10.70;99.90
20459;DHT22;10388;52.314;7.938;2023-11-19T05:23:09;10.70;99.90
20459;DHT22;10388;52.314;7.938;2023-11-19T05:25:40;10.70;99.90
20459;DHT22;10388;52.314;7.938;2023-11-19T05:28:10;10.70;99.90
20459;DHT22;10388;52.314;7.938;2023-11-19T05:30:41;10.70;99.90
20459;DHT22;10388;52.314;7.938;2023-11-19T05:33:11;10.70;99.90
20459;DHT22;10388;52.314;7.938;2023-11-19T05:35:42;10.70;99.90
20459;DHT22;10388;52.314;7.938;2023-11-19T05:38:12;10.60;99.90
20459;DHT22;10388;52.314;7.938;2023-11-19T05:40:43;10.60;99.90
20459;DHT22;10388;52.314;7.938;2023-11-19T05:43:14;10.60;99.90
20459;DHT22;10388;52.314;7.938;2023-11-19T05:45:47;10.50;99.90
20459;DHT22;10388;52.314;7.938;2023-11-19T05:48:17;10.50;99.90
20459;DHT22;10388;52.314;7.938;2023-11-19T05:50:48;10.50;99.90
20459;DHT22;10388;52.314;7.938;2023-11-19T05:53:20;10.60;99.90
20459;DHT22;10388;52.314;7.938;2023-11-19T05:55:50;10.60;99.90
20459;DHT22;10388;52.314;7.938;2023-11-19T05:58:27;10.60;99.90
20459;DHT22;10388;52.314;7.938;2023-11-19T06:00:59;10.70;99.90
20459;DHT22;10388;52.314;7.938;2023-11-19T06:03:33;10.60;99.90
20459;DHT22;10388;52.314;7.938;2023-11-19T06:06:04;10.60;99.90
20459;DHT22;10388;52.314;7.938;2023-11-19T06:08:35;10.60;99.90
20459;DHT22;10388;52.314;7.938;2023-11-19T06:11:06;10.60;99.90
20459;DHT22;10388;52.314;7.938;2023-11-19T06:13:36;10.70;99.90
20459;DHT22;10388;52.314;7.938;2023-11-19T06:16:07;10.60;99.90
20459;DHT22;10388;52.314;7.938;2023-11-19T06:18:37;10.60;99.90
20459;DHT22;10388;52.314;7.938;2023-11-19T06:21:08;10.60;99.90
20459;DHT22;10388;52.314;7.938;2023-11-19T06:23:38;10.60;99.90
20459;DHT22;10388;52.314;7.938;2023-11-19T06:26:09;10.60;99.90
20459;DHT22;10388;52.314;7.938;2023-11-19T06:28:40;10.60;99.90
20459;DHT22;10388;52.314;7.938;2023-11-19T06:31:10;10.60;99.90
20459;DHT22;10388;52.314;7.938;2023-11-19T06:33:41;10.60;99.90
20459;DHT22;10388;52.314;7.938;2023-11-19T06:36:14;10.50;99.90
20459;DHT22;10388;52.314;7.938;2023-11-19T06:38:46;10.50;99.90
20459;DHT22;10388;52.314;7.938;2023-11-19T06:41:17;10.50;99.90
20459;DHT22;10388;52.314;7.938;2023-11-19T06:43:47;10.50;99.90
20459;DHT22;10388;52.314;7.938;2023-11-19T06:46:18;10.50;99.90
20459;DHT22;10388;52.314;7.938;2023-11-19T06:48:49;10.50;99.90
20459;DHT22;10388;52.314;7.938;2023-11-19T06:51:19;10.50;99.90
20459;DHT22;10388;52.314;7.938;2023-11-19T06:53:50;10.50;99.90
20459;DHT22;10388;52.314;7.938;2023-11-19T06:56:22;10.40;99.90
20459;DHT22;10388;52.314;7.938;2023-11-19T06:58:53;10.50;99.90
20459;DHT22;10388;52.314;7.938;2023-11-19T07:01:23;10.50;99.90
20459;DHT22;10388;52.314;7.938;2023-11-19T07:03:54;10.40;99.90
20459;DHT22;10388;52.314;7.938;2023-11-19T07:06:25;10.40;99.90
20459;DHT22;10388;52.314;7.938;2023-11-19T07:08:55;10.40;99.90
20459;DHT22;10388;52.314;7.938;2023-11-19T07:11:25;10.50;99.90
20459;DHT22;10388;52.314;7.938;2023-11-19T07:13:56;10.50;99.90
20459;DHT22;10388;52.314;7.938;2023-11-19T07:16:27;10.50;99.90
20459;DHT22;10388;52.314;7.938;2023-11-19T07:18:57;10.50;99.90
20459;DHT22;10388;52.314;7.938;2023-11-19T07:21:29;10.40;99.90
20459;DHT22;10388;52.314;7.938;2023-11-19T07:23:59;10.40;99.90
20459;DHT22;10388;52.314;7.938;2023-11-19T07:26:30;10.40;99.90
20459;DHT22;10388;52.314;7.938;2023-11-19T07:29:00;10.40;99.90
20459;DHT22;10388;52.314;7.938;2023-11-19T07:31:32;10.40;99.90
20459;DHT22;10388;52.314;7.938;2023-11-19T07:34:02;10.40;99.90
20459;DHT22;10388;52.314;7.938;2023-11-19T07:36:33;10.40;99.90
20459;DHT22;10388;52.314;7.938;2023-11-19T07:39:04;10.50;99.90
20459;DHT22;10388;52.314;7.938;2023-11-19T07:41:35;10.50;99.90
20459;DHT22;10388;52.314;7.938;2023-11-19T07:44:06;10.50;99.90
20459;DHT22;10388;52.314;7.938;2023-11-19T07:46:37;10.50;99.90
20459;DHT22;10388;52.314;7.938;2023-11-19T07:49:07;10.50;99.90
20459;DHT22;10388;52.314;7.938;2023-11-19T07:51:40;10.50;99.90
20459;DHT22;10388;52.314;7.938;2023-11-19T07:54:10;10.50;99.90
20459;DHT22;10388;52.314;7.938;2023-11-19T07:56:41;10.60;99.90
20459;DHT22;10388;52.314;7.938;2023-11-19T07:59:11;10.50;99.90
20459;DHT22;10388;52.314;7.938;2023-11-19T08:01:42;10.60;99.90
20459;DHT22;10388;52.314;7.938;2023-11-19T08:04:12;10.60;99.90
20459;DHT22;10388;52.314;7.938;2023-11-19T08:06:43;10.60;99.90
20459;DHT22;10388;52.314;7.938;2023-11-19T08:09:14;10.60;99.90
20459;DHT22;10388;52.314;7.938;2023-11-19T08:11:44;10.70;99.90
20459;DHT22;10388;52.314;7.938;2023-11-19T08:14:16;10.70;99.90
20459;DHT22;10388;52.314;7.938;2023-11-19T08:16:46;10.60;99.90
20459;DHT22;10388;52.314;7.938;2023-11-19T08:19:17;10.60;99.90
20459;DHT22;10388;52.314;7.938;2023-11-19T08:21:47;10.60;99.90
20459;DHT22;10388;52.314;7.938;2023-11-19T08:24:18;10.70;99.90
20459;DHT22;10388;52.314;7.938;2023-11-19T08:26:48;10.70;99.90
20459;DHT22;10388;52.314;7.938;2023-11-19T08:29:19;10.70;99.90
20459;DHT22;10388;52.314;7.938;2023-11-19T08:31:50;10.70;99.90
20459;DHT22;10388;52.314;7.938;2023-11-19T08:34:20;10.60;99.90
20459;DHT22;10388;52.314;7.938;2023-11-19T08:36:51;10.60;99.90
20459;DHT22;10388;52.314;7.938;2023-11-19T08:39:23;10.60;99.90
20459;DHT22;10388;52.314;7.938;2023-11-19T08:41:54;10.60;99.90
20459;DHT22;10388;52.314;7.938;2023-11-19T08:44:25;10.70;99.90
20459;DHT22;10388;52.314;7.938;2023-11-19T08:46:57;10.70;99.90
20459;DHT22;10388;52.314;7.938;2023-11-19T08:49:27;10.70;99.90
20459;DHT22;10388;52.314;7.938;2023-11-19T08:51:58;10.70;99.90
20459;DHT22;10388;52.314;7.938;2023-11-19T08:54:28;10.70;99.90
20459;DHT22;10388;52.314;7.938;2023-11-19T08:56:59;10.70;99.90
20459;DHT22;10388;52.314;7.938;2023-11-19T08:59:33;10.60;99.90
20459;DHT22;10388;52.314;7.938;2023-11-19T09:02:07;10.60;99.90
20459;DHT22;10388;52.314;7.938;2023-11-19T09:04:38;10.60;99.90
20459;DHT22;10388;52.314;7.938;2023-11-19T09:07:08;10.60;99.90
20459;DHT22;10388;52.314;7.938;2023-11-19T09:09:42;10.60;99.90
20459;DHT22;10388;52.314;7.938;2023-11-19T09:12:13;10.50;99.90
20459;DHT22;10388;52.314;7.938;2023-11-19T09:14:44;10.50;99.90
20459;DHT22;10388;52.314;7.938;2023-11-19T09:17:16;10.40;99.90
20459;DHT22;10388;52.314;7.938;2023-11-19T09:19:47;10.50;99.90
20459;DHT22;10388;52.314;7.938;2023-11-19T09:22:18;10.50;99.90
20459;DHT22;10388;52.314;7.938;2023-11-19T09:24:49;10.40;99.90
20459;DHT22;10388;52.314;7.938;2023-11-19T09:27:19;10.40;99.90
20459;DHT22;10388;52.314;7.938;2023-11-19T09:29:50;10.50;99.90
20459;DHT22;10388;52.314;7.938;2023-11-19T09:32:27;10.50;99.90
20459;DHT22;10388;52.314;7.938;2023-11-19T09:34:57;10.60;99.90
20459;DHT22;10388;52.314;7.938;2023-11-19T09:37:28;10.60;99.90
20459;DHT22;10388;52.314;7.938;2023-11-19T09:39:59;10.60;99.90
20459;DHT22;10388;52.314;7.938;2023-11-19T09:42:43;10.60;99.90
20459;DHT22;10388;52.314;7.938;2023-11-19T09:45:16;10.60;99.90
20459;DHT22;10388;52.314;7.938;2023-11-19T09:47:47;10.60;99.90
20459;DHT22;10388;52.314;7.938;2023-11-19T09:50:23;10.70;99.90
20459;DHT22;10388;52.314;7.938;2023-11-19T09:52:54;10.60;99.90
20459;DHT22;10388;52.314;7.938;2023-11-19T09:55:24;10.70;99.90
20459;DHT22;10388;52.314;7.938;2023-11-19T09:57:55;10.80;99.90
20459;DHT22;10388;52.314;7.938;2023-11-19T10:00:27;10.80;99.90
20459;DHT22;10388;52.314;7.938;2023-11-19T10:02:59;10.80;99.90
20459;DHT22;10388;52.314;7.938;2023-11-19T10:05:30;10.90;99.90
20459;DHT22;10388;52.314;7.938;2023-11-19T10:08:02;10.90;99.90
20459;DHT22;10388;52.314;7.938;2023-11-19T10:10:34;11.00;99.90
20459;DHT22;10388;52.314;7.938;2023-11-19T10:13:05;11.00;99.90
20459;DHT22;10388;52.314;7.938;2023-11-19T10:15:37;11.00;99.90
20459;DHT22;10388;52.314;7.938;2023-11-19T10:18:07;11.10;99.90
20459;DHT22;10388;52.314;7.938;2023-11-19T10:20:41;11.10;99.90
20459;DHT22;10388;52.314;7.938;2023-11-19T10:23:11;11.10;99.90
20459;DHT22;10388;52.314;7.938;2023-11-19T10:25:42;11.20;99.90
20459;DHT22;10388;52.314;7.938;2023-11-19T10:28:15;11.20;99.90
20459;DHT22;10388;52.314;7.938;2023-11-19T10:30:48;11.20;99.90
20459;DHT22;10388;52.314;7.938;2023-11-19T10:33:19;11.30;99.90
20459;DHT22;10388;52.314;7.938;2023-11-19T10:35:55;11.30;99.90
20459;DHT22;10388;52.314;7.938;2023-11-19T10:38:32;11.20;99.90
20459;DHT22;10388;52.314;7.938;2023-11-19T10:41:04;11.20;99.90
20459;DHT22;10388;52.314;7.938;2023-11-19T10:43:44;11.10;99.90
20459;DHT22;10388;52.314;7.938;2023-11-19T10:46:15;11.00;99.90
20459;DHT22;10388;52.314;7.938;2023-11-19T10:48:51;11.00;99.90
20459;DHT22;10388;52.314;7.938;2023-11-19T10:51:21;10.90;99.90
20459;DHT22;10388;52.314;7.938;2023-11-19T10:53:56;10.90;99.90
20459;DHT22;10388;52.314;7.938;2023-11-19T10:56:31;10.90;99.90
20459;DHT22;10388;52.314;7.938;2023-11-19T10:59:02;10.90;99.90
20459;DHT22;10388;52.314;7.938;2023-11-19T11:01:44;10.90;99.90
20459;DHT22;10388;52.314;7.938;2023-11-19T11:04:23;10.90;99.90
20459;DHT22;10388;52.314;7.938;2023-11-19T11:06:58;10.90;99.90
20459;DHT22;10388;52.314;7.938;2023-11-19T11:09:30;10.90;99.90
20459;DHT22;10388;52.314;7.938;2023-11-19T11:12:01;10.90;99.90
20459;DHT22;10388;52.314;7.938;2023-11-19T11:14:32;10.90;99.90
20459;DHT22;10388;52.314;7.938;2023-11-19T11:17:06;10.90;99.90
20459;DHT22;10388;52.314;7.938;2023-11-19T11:19:38;10.90;99.90
20459;DHT22;10388;52.314;7.938;2023-11-19T11:22:10;10.90;99.90
20459;DHT22;10388;52.314;7.938;2023-11-19T11:39:40;10.90;99.90
20459;DHT22;10388;52.314;7.938;2023-11-19T11:42:32;11.00;99.90
20459;DHT22;10388;52.314;7.938;2023-11-19T11:45:13;11.00;99.90
20459;DHT22;10388;52.314;7.938;2023-11-19T11:50:19;11.10;99.90
20459;DHT22;10388;52.314;7.938;2023-11-19T11:55:27;11.20;99.90
20459;DHT22;10388;52.314;7.938;2023-11-19T11:58:01;11.20;99.90
20459;DHT22;10388;52.314;7.938;2023-11-19T12:00:33;11.20;99.90
20459;DHT22;10388;52.314;7.938;2023-11-19T12:03:08;11.20;99.90
20459;DHT22;10388;52.314;7.938;2023-11-19T12:05:45;11.10;99.90
20459;DHT22;10388;52.314;7.938;2023-11-19T12:08:19;11.10;99.90
20459;DHT22;10388;52.314;7.938;2023-11-19T12:10:54;11.10;99.90
20459;DHT22;10388;52.314;7.938;2023-11-19T12:13:55;11.10;99.90
20459;DHT22;10388;52.314;7.938;2023-11-19T12:16:32;11.10;99.90
20459;DHT22;10388;52.314;7.938;2023-11-19T12:19:08;11.20;99.90
20459;DHT22;10388;52.314;7.938;2023-11-19T12:21:38;11.20;99.90
20459;DHT22;10388;52.314;7.938;2023-11-19T12:24:09;11.20;99.90
20459;DHT22;10388;52.314;7.938;2023-11-19T12:26:42;11.20;99.90
20459;DHT22;10388;52.314;7.938;2023-11-19T12:29:13;11.20;99.90
20459;DHT22;10388;52.314;7.938;2023-11-19T12:31:54;11.20;99.90
20459;DHT22;10388;52.314;7.938;2023-11-19T12:34:24;11.30;99.90
20459;DHT22;10388;52.314;7.938;2023-11-19T12:36:57;11.30;99.90
20459;DHT22;10388;52.314;7.938;2023-11-19T12:39:30;11.40;99.90
20459;DHT22;10388;52.314;7.938;2023-11-19T12:42:01;11.40;99.90
20459;DHT22;10388;52.314;7.938;2023-11-19T12:44:31;11.40;99.90
20459;DHT22;10388;52.314;7.938;2023-11-19T12:47:07;11.40;99.90
20459;DHT22;10388;52.314;7.938;2023-11-19T12:49:37;11.40;99.90
20459;DHT22;10388;52.314;7.938;2023-11-19T12:52:13;11.50;99.90
20459;DHT22;10388;52.314;7.938;2023-11-19T12:54:44;11.50;99.90
20459;DHT22;10388;52.314;7.938;2023-11-19T12:57:15;11.50;99.90
20459;DHT22;10388;52.314;7.938;2023-11-19T12:59:55;11.50;99.90
20459;DHT22;10388;52.314;7.938;2023-11-19T13:02:48;11.50;99.90
20459;DHT22;10388;52.314;7.938;2023-11-19T13:08:06;11.40;99.90
20459;DHT22;10388;52.314;7.938;2023-11-19T13:13:21;11.30;99.90
20459;DHT22;10388;52.314;7.938;2023-11-19T13:15:51;11.30;99.90
20459;DHT22;10388;52.314;7.938;2023-11-19T13:18:22;11.20;99.90
20459;DHT22;10388;52.314;7.938;2023-11-19T13:20:52;11.20;99.90
20459;DHT22;10388;52.314;7.938;2023-11-19T13:23:23;11.20;99.90
20459;DHT22;10388;52.314;7.938;2023-11-19T13:25:53;11.20;99.90
20459;DHT22;10388;52.314;7.938;2023-11-19T13:28:24;11.30;99.90
20459;DHT22;10388;52.314;7.938;2023-11-19T13:30:56;11.20;99.90
20459;DHT22;10388;52.314;7.938;2023-11-19T13:33:26;11.20;99.90
20459;DHT22;10388;52.314;7.938;2023-11-19T13:35:57;11.20;99.90
20459;DHT22;10388;52.314;7.938;2023-11-19T13:38:27;11.20;99.90
20459;DHT22;10388;52.314;7.938;2023-11-19T13:40:58;11.20;99.90
20459;DHT22;10388;52.314;7.938;2023-11-19T13:43:30;11.20;99.90
20459;DHT22;10388;52.314;7.938;2023-11-19T13:46:01;11.20;99.90
20459;DHT22;10388;52.314;7.938;2023-11-19T13:48:31;11.20;99.90
20459;DHT22;10388;52.314;7.938;2023-11-19T13:51:02;11.10;99.90
20459;DHT22;10388;52.314;7.938;2023-11-19T13:53:33;11.10;99.90
20459;DHT22;10388;52.314;7.938;2023-11-19T13:56:04;11.10;99.90
20459;DHT22;10388;52.314;7.938;2023-11-19T13:58:34;11.00;99.90
20459;DHT22;10388;52.314;7.938;2023-11-19T14:01:05;11.00;99.90
20459;DHT22;10388;52.314;7.938;2023-11-19T14:03:36;11.00;99.90
20459;DHT22;10388;52.314;7.938;2023-11-19T14:06:07;11.00;99.90
20459;DHT22;10388;52.314;7.938;2023-11-19T14:08:38;11.10;99.90
20459;DHT22;10388;52.314;7.938;2023-11-19T14:11:09;11.20;99.90
20459;DHT22;10388;52.314;7.938;2023-11-19T14:13:39;11.20;99.90
20459;DHT22;10388;52.314;7.938;2023-11-19T14:16:10;11.20;99.90
20459;DHT22;10388;52.314;7.938;2023-11-19T14:18:42;11.20;99.90
20459;DHT22;10388;52.314;7.938;2023-11-19T14:21:13;11.10;99.90
20459;DHT22;10388;52.314;7.938;2023-11-19T14:23:43;11.10;99.90
20459;DHT22;10388;52.314;7.938;2023-11-19T14:26:14;11.10;99.90
20459;DHT22;10388;52.314;7.938;2023-11-19T14:28:45;11.10;99.90
20459;DHT22;10388;52.314;7.938;2023-11-19T14:31:15;11.10;99.90
20459;DHT22;10388;52.314;7.938;2023-11-19T14:33:46;11.10;99.90
20459;DHT22;10388;52.314;7.938;2023-11-19T14:36:16;11.10;99.90
20459;DHT22;10388;52.314;7.938;2023-11-19T14:38:47;11.10;99.90
20459;DHT22;10388;52.314;7.938;2023-11-19T14:41:17;11.10;99.90
20459;DHT22;10388;52.314;7.938;2023-11-19T14:43:48;11.00;99.90
20459;DHT22;10388;52.314;7.938;2023-11-19T14:46:18;10.90;99.90
20459;DHT22;10388;52.314;7.938;2023-11-19T14:48:49;10.90;99.90
20459;DHT22;10388;52.314;7.938;2023-11-19T14:51:20;10.90;99.90
20459;DHT22;10388;52.314;7.938;2023-11-19T14:53:51;10.80;99.90
20459;DHT22;10388;52.314;7.938;2023-11-19T14:56:21;10.80;99.90
20459;DHT22;10388;52.314;7.938;2023-11-19T14:58:52;10.80;99.90
20459;DHT22;10388;52.314;7.938;2023-11-19T15:01:22;10.80;99.90
20459;DHT22;10388;52.314;7.938;2023-11-19T15:03:53;10.80;99.90
20459;DHT22;10388;52.314;7.938;2023-11-19T15:06:24;10.80;99.90
20459;DHT22;10388;52.314;7.938;2023-11-19T15:08:56;10.80;99.90
20459;DHT22;10388;52.314;7.938;2023-11-19T15:11:27;10.70;99.90
20459;DHT22;10388;52.314;7.938;2023-11-19T15:13:57;10.70;99.90
20459;DHT22;10388;52.314;7.938;2023-11-19T15:16:28;10.70;99.90
20459;DHT22;10388;52.314;7.938;2023-11-19T15:19:03;10.70;99.90
20459;DHT22;10388;52.314;7.938;2023-11-19T15:21:34;10.70;99.90
20459;DHT22;10388;52.314;7.938;2023-11-19T15:24:05;10.70;99.90
20459;DHT22;10388;52.314;7.938;2023-11-19T15:26:37;10.60;99.90
20459;DHT22;10388;52.314;7.938;2023-11-19T15:29:08;10.70;99.90
20459;DHT22;10388;52.314;7.938;2023-11-19T15:31:39;10.70;99.90
20459;DHT22;10388;52.314;7.938;2023-11-19T15:34:10;10.70;99.90
20459;DHT22;10388;52.314;7.938;2023-11-19T15:36:41;10.70;99.90
20459;DHT22;10388;52.314;7.938;2023-11-19T15:39:11;10.70;99.90
20459;DHT22;10388;52.314;7.938;2023-11-19T15:41:43;10.70;99.90
20459;DHT22;10388;52.314;7.938;2023-11-19T15:44:14;10.70;99.90
20459;DHT22;10388;52.314;7.938;2023-11-19T15:46:44;10.70;99.90
20459;DHT22;10388;52.314;7.938;2023-11-19T15:49:15;10.70;99.90
20459;DHT22;10388;52.314;7.938;2023-11-19T15:51:46;10.70;99.90
20459;DHT22;10388;52.314;7.938;2023-11-19T15:54:17;10.70;99.90
20459;DHT22;10388;52.314;7.938;2023-11-19T15:56:47;10.70;99.90
20459;DHT22;10388;52.314;7.938;2023-11-19T15:59:18;10.70;99.90
20459;DHT22;10388;52.314;7.938;2023-11-19T16:01:48;10.70;99.90
20459;DHT22;10388;52.314;7.938;2023-11-19T16:04:19;10.70;99.90
20459;DHT22;10388;52.314;7.938;2023-11-19T16:06:50;10.70;99.90
20459;DHT22;10388;52.314;7.938;2023-11-19T16:09:21;10.70;99.90
20459;DHT22;10388;52.314;7.938;2023-11-19T16:11:52;10.70;99.90
20459;DHT22;10388;52.314;7.938;2023-11-19T16:14:24;10.70;99.90
20459;DHT22;10388;52.314;7.938;2023-11-19T16:16:54;10.70;99.90
20459;DHT22;10388;52.314;7.938;2023-11-19T16:19:25;10.70;99.90
20459;DHT22;10388;52.314;7.938;2023-11-19T16:21:57;10.70;99.90
20459;DHT22;10388;52.314;7.938;2023-11-19T16:24:27;10.70;99.90
20459;DHT22;10388;52.314;7.938;2023-11-19T16:26:58;10.70;99.90
20459;DHT22;10388;52.314;7.938;2023-11-19T16:29:29;10.70;99.90
20459;DHT22;10388;52.314;7.938;2023-11-19T16:31:59;10.60;99.90
20459;DHT22;10388;52.314;7.938;2023-11-19T16:34:30;10.60;99.90
20459;DHT22;10388;52.314;7.938;2023-11-19T16:37:00;10.60;99.90
20459;DHT22;10388;52.314;7.938;2023-11-19T16:39:31;10.50;99.90
20459;DHT22;10388;52.314;7.938;2023-11-19T16:42:01;10.60;99.90
20459;DHT22;10388;52.314;7.938;2023-11-19T16:44:32;10.60;99.90
20459;DHT22;10388;52.314;7.938;2023-11-19T16:47:03;10.50;99.90
20459;DHT22;10388;52.314;7.938;2023-11-19T16:49:34;10.60;99.90
20459;DHT22;10388;52.314;7.938;2023-11-19T16:52:04;10.60;99.90
20459;DHT22;10388;52.314;7.938;2023-11-19T16:54:35;10.60;99.90
20459;DHT22;10388;52.314;7.938;2023-11-19T16:57:05;10.50;99.90
20459;DHT22;10388;52.314;7.938;2023-11-19T16:59:36;10.50;99.90
20459;DHT22;10388;52.314;7.938;2023-11-19T17:02:06;10.50;99.90
20459;DHT22;10388;52.314;7.938;2023-11-19T17:04:37;10.40;99.90
20459;DHT22;10388;52.314;7.938;2023-11-19T17:07:07;10.40;99.90
20459;DHT22;10388;52.314;7.938;2023-11-19T17:09:38;10.40;99.90
20459;DHT22;10388;52.314;7.938;2023-11-19T17:12:11;10.40;99.90
20459;DHT22;10388;52.314;7.938;2023-11-19T17:14:42;10.40;99.90
20459;DHT22;10388;52.314;7.938;2023-11-19T17:17:12;10.40;99.90
20459;DHT22;10388;52.314;7.938;2023-11-19T17:19:43;10.40;99.90
20459;DHT22;10388;52.314;7.938;2023-11-19T17:22:13;10.40;99.90
20459;DHT22;10388;52.314;7.938;2023-11-19T17:24:44;10.40;99.90
20459;DHT22;10388;52.314;7.938;2023-11-19T17:27:15;10.50;99.90
20459;DHT22;10388;52.314;7.938;2023-11-19T17:29:45;10.40;99.90
20459;DHT22;10388;52.314;7.938;2023-11-19T17:32:16;10.40;99.90
20459;DHT22;10388;52.314;7.938;2023-11-19T17:34:46;10.40;99.90
20459;DHT22;10388;52.314;7.938;2023-11-19T17:37:17;10.40;99.90
20459;DHT22;10388;52.314;7.938;2023-11-19T17:39:48;10.40;99.90
20459;DHT22;10388;52.314;7.938;2023-11-19T17:42:19;10.40;99.90
20459;DHT22;10388;52.314;7.938;2023-11-19T17:44:49;10.40;99.90
20459;DHT22;10388;52.314;7.938;2023-11-19T17:47:23;10.40;99.90
20459;DHT22;10388;52.314;7.938;2023-11-19T17:49:53;10.40;99.90
20459;DHT22;10388;52.314;7.938;2023-11-19T17:52:24;10.40;99.90
20459;DHT22;10388;52.314;7.938;2023-11-19T17:54:55;10.40;99.90
20459;DHT22;10388;52.314;7.938;2023-11-19T17:57:25;10.40;99.90
20459;DHT22;10388;52.314;7.938;2023-11-19T17:59:57;10.40;99.90
20459;DHT22;10388;52.314;7.938;2023-11-19T18:02:27;10.40;99.90
20459;DHT22;10388;52.314;7.938;2023-11-19T18:04:58;10.40;99.90
20459;DHT22;10388;52.314;7.938;2023-11-19T18:07:28;10.40;99.90
20459;DHT22;10388;52.314;7.938;2023-11-19T18:09:59;10.40;99.90
20459;DHT22;10388;52.314;7.938;2023-11-19T18:12:30;10.40;99.90
20459;DHT22;10388;52.314;7.938;2023-11-19T18:15:01;10.40;99.90
20459;DHT22;10388;52.314;7.938;2023-11-19T18:17:31;10.40;99.90
20459;DHT22;10388;52.314;7.938;2023-11-19T18:20:02;10.40;99.90
20459;DHT22;10388;52.314;7.938;2023-11-19T18:22:33;10.40;99.90
20459;DHT22;10388;52.314;7.938;2023-11-19T18:25:05;10.40;99.90
20459;DHT22;10388;52.314;7.938;2023-11-19T18:27:36;10.40;99.90
20459;DHT22;10388;52.314;7.938;2023-11-19T18:30:09;10.40;99.90
20459;DHT22;10388;52.314;7.938;2023-11-19T18:32:40;10.40;99.90
20459;DHT22;10388;52.314;7.938;2023-11-19T18:35:14;10.40;99.90
20459;DHT22;10388;52.314;7.938;2023-11-19T18:37:53;10.40;99.90
20459;DHT22;10388;52.314;7.938;2023-11-19T18:40:24;10.40;99.90
20459;DHT22;10388;52.314;7.938;2023-11-19T18:42:56;10.40;99.90
20459;DHT22;10388;52.314;7.938;2023-11-19T18:45:26;10.40;99.90
20459;DHT22;10388;52.314;7.938;2023-11-19T18:47:57;10.50;99.90
20459;DHT22;10388;52.314;7.938;2023-11-19T18:50:29;10.40;99.90
20459;DHT22;10388;52.314;7.938;2023-11-19T18:53:00;10.40;99.90
20459;DHT22;10388;52.314;7.938;2023-11-19T18:55:30;10.40;99.90
20459;DHT22;10388;52.314;7.938;2023-11-19T18:58:01;10.40;99.90
20459;DHT22;10388;52.314;7.938;2023-11-19T19:00:31;10.40;99.90
20459;DHT22;10388;52.314;7.938;2023-11-19T19:03:02;10.40;99.90
20459;DHT22;10388;52.314;7.938;2023-11-19T19:05:32;10.40;99.90
20459;DHT22;10388;52.314;7.938;2023-11-19T19:08:03;10.40;99.90
20459;DHT22;10388;52.314;7.938;2023-11-19T19:10:33;10.30;99.90
20459;DHT22;10388;52.314;7.938;2023-11-19T19:13:07;10.30;99.90
20459;DHT22;10388;52.314;7.938;2023-11-19T19:15:38;10.30;99.90
20459;DHT22;10388;52.314;7.938;2023-11-19T19:18:09;10.30;99.90
20459;DHT22;10388;52.314;7.938;2023-11-19T19:20:40;10.30;99.90
20459;DHT22;10388;52.314;7.938;2023-11-19T19:23:11;10.30;99.90
20459;DHT22;10388;52.314;7.938;2023-11-19T19:25:41;10.30;99.90
20459;DHT22;10388;52.314;7.938;2023-11-19T19:28:12;10.30;99.90
20459;DHT22;10388;52.314;7.938;2023-11-19T19:30:42;10.20;99.90
20459;DHT22;10388;52.314;7.938;2023-11-19T19:33:14;10.30;99.90
20459;DHT22;10388;52.314;7.938;2023-11-19T19:35:44;10.20;99.90
20459;DHT22;10388;52.314;7.938;2023-11-19T19:38:15;10.20;99.90
20459;DHT22;10388;52.314;7.938;2023-11-19T19:40:46;10.20;99.90
20459;DHT22;10388;52.314;7.938;2023-11-19T19:43:16;10.20;99.90
20459;DHT22;10388;52.314;7.938;2023-11-19T19:45:47;10.20;99.90
20459;DHT22;10388;52.314;7.938;2023-11-19T19:48:17;10.20;99.90
20459;DHT22;10388;52.314;7.938;2023-11-19T19:50:48;10.20;99.90
20459;DHT22;10388;52.314;7.938;2023-11-19T19:53:18;10.20;99.90
20459;DHT22;10388;52.314;7.938;2023-11-19T19:55:49;10.20;99.90